sensor_id;sensor_type;location;lat;lon;timestamp;pressure;altitude;pressure_sealevel;temperature
20867;BMP280;10593;48.398;10.698;2022-07-29T00:00:06;96097.38;;;29.43
20867;BMP280;10593;48.398;10.698;2022-07-29T00:02:32;96071.22;;;29.31
20867;BMP280;10593;48.398;10.698;2022-07-29T00:04:58;96051.06;;;29.20
20867;BMP280;10593;48.398;10.698;2022-07-29T00:07:24;96053.59;;;29.12
20867;BMP280;10593;48.398;10.698;2022-07-29T00:09:50;96071.16;;;29.04
20867;BMP280;10593;48.398;10.698;2022-07-29T00:12:16;96096.94;;;29.02
20867;BMP280;10593;48.398;10.698;2022-07-29T00:14:42;96100.69;;;28.99
20867;BMP280;10593;48.398;10.698;2022-07-29T00:17:08;96099.72;;;29.00
20867;BMP280;10593;48.398;10.698;2022-07-29T00:19:34;96093.63;;;29.00
20867;BMP280;10593;48.398;10.698;2022-07-29T00:22:01;96085.69;;;29.00
20867;BMP280;10593;48.398;10.698;2022-07-29T00:24:27;96075.91;;;29.00
20867;BMP280;10593;48.398;10.698;2022-07-29T00:26:52;96071.47;;;29.01
20867;BMP280;10593;48.398;10.698;2022-07-29T00:29:18;96061.69;;;29.01
20867;BMP280;10593;48.398;10.698;2022-07-29T00:31:44;96067.84;;;29.02
20867;BMP280;10593;48.398;10.698;2022-07-29T00:34:10;96073.13;;;29.02
20867;BMP280;10593;48.398;10.698;2022-07-29T00:36:56;96069.63;;;29.01
20867;BMP280;10593;48.398;10.698;2022-07-29T00:39:22;96079.41;;;29.01
20867;BMP280;10593;48.398;10.698;2022-07-29T00:41:49;96076.75;;;29.01
20867;BMP280;10593;48.398;10.698;2022-07-29T00:44:15;96070.59;;;29.00
20867;BMP280;10593;48.398;10.698;2022-07-29T00:46:41;96071.47;;;29.01
20867;BMP280;10593;48.398;10.698;2022-07-29T00:49:07;96074.25;;;28.99
20867;BMP280;10593;48.398;10.698;2022-07-29T00:51:36;96068.13;;;28.99
20867;BMP280;10593;48.398;10.698;2022-07-29T00:54:03;96076.19;;;28.97
20867;BMP280;10593;48.398;10.698;2022-07-29T00:56:33;96067.56;;;28.95
20867;BMP280;10593;48.398;10.698;2022-07-29T00:59:00;96067.84;;;28.92
20867;BMP280;10593;48.398;10.698;2022-07-29T01:01:26;96069.81;;;28.90
20867;BMP280;10593;48.398;10.698;2022-07-29T01:03:53;96074.34;;;28.88
20867;BMP280;10593;48.398;10.698;2022-07-29T01:06:19;96063.09;;;28.86
20867;BMP280;10593;48.398;10.698;2022-07-29T01:08:47;96065.03;;;28.84
20867;BMP280;10593;48.398;10.698;2022-07-29T01:11:16;96054.75;;;28.81
20867;BMP280;10593;48.398;10.698;2022-07-29T01:13:44;96055.88;;;28.79
20867;BMP280;10593;48.398;10.698;2022-07-29T01:16:21;96049.03;;;28.76
20867;BMP280;10593;48.398;10.698;2022-07-29T01:19:01;96045.84;;;28.73
20867;BMP280;10593;48.398;10.698;2022-07-29T01:21:55;96042.78;;;28.68
20867;BMP280;10593;48.398;10.698;2022-07-29T01:24:58;96031.94;;;28.61
20867;BMP280;10593;48.398;10.698;2022-07-29T01:30:36;96037.13;;;28.53
20867;BMP280;10593;48.398;10.698;2022-07-29T01:33:09;96039.88;;;28.52
20867;BMP280;10593;48.398;10.698;2022-07-29T01:35:39;96040.16;;;28.49
20867;BMP280;10593;48.398;10.698;2022-07-29T01:38:17;96035.00;;;28.47
20867;BMP280;10593;48.398;10.698;2022-07-29T01:40:52;96035.28;;;28.44
20867;BMP280;10593;48.398;10.698;2022-07-29T01:43:41;96027.66;;;28.41
20867;BMP280;10593;48.398;10.698;2022-07-29T01:46:14;96019.03;;;28.39
20867;BMP280;10593;48.398;10.698;2022-07-29T01:48:53;96011.38;;;28.36
20867;BMP280;10593;48.398;10.698;2022-07-29T01:51:37;96023.19;;;28.32
20867;BMP280;10593;48.398;10.698;2022-07-29T01:54:35;96026.94;;;28.30
20867;BMP280;10593;48.398;10.698;2022-07-29T01:57:04;96021.09;;;28.26
20867;BMP280;10593;48.398;10.698;2022-07-29T01:59:34;96017.75;;;28.24
20867;BMP280;10593;48.398;10.698;2022-07-29T02:02:02;96010.81;;;28.23
20867;BMP280;10593;48.398;10.698;2022-07-29T02:04:29;96009.25;;;28.21
20867;BMP280;10593;48.398;10.698;2022-07-29T02:07:01;96007.72;;;28.18
20867;BMP280;10593;48.398;10.698;2022-07-29T02:09:30;96013.28;;;28.16
20867;BMP280;10593;48.398;10.698;2022-07-29T02:11:59;96010.94;;;28.13
20867;BMP280;10593;48.398;10.698;2022-07-29T02:14:32;95999.50;;;28.12
20867;BMP280;10593;48.398;10.698;2022-07-29T02:17:01;96003.28;;;28.10
20867;BMP280;10593;48.398;10.698;2022-07-29T02:19:29;96005.22;;;28.08
20867;BMP280;10593;48.398;10.698;2022-07-29T02:21:57;96004.53;;;28.06
20867;BMP280;10593;48.398;10.698;2022-07-29T02:24:25;96006.47;;;28.04
20867;BMP280;10593;48.398;10.698;2022-07-29T02:26:55;96006.47;;;28.04
20867;BMP280;10593;48.398;10.698;2022-07-29T02:29:25;96012.72;;;28.03
20867;BMP280;10593;48.398;10.698;2022-07-29T02:31:53;96003.13;;;28.02
20867;BMP280;10593;48.398;10.698;2022-07-29T02:34:20;96005.09;;;28.00
20867;BMP280;10593;48.398;10.698;2022-07-29T02:36:49;95995.50;;;27.99
20867;BMP280;10593;48.398;10.698;2022-07-29T02:39:17;96001.59;;;27.99
20867;BMP280;10593;48.398;10.698;2022-07-29T02:41:58;96000.78;;;27.99
20867;BMP280;10593;48.398;10.698;2022-07-29T02:44:25;96001.88;;;27.96
20867;BMP280;10593;48.398;10.698;2022-07-29T02:47:17;96007.44;;;27.93
20867;BMP280;10593;48.398;10.698;2022-07-29T02:50:05;96002.28;;;27.92
20867;BMP280;10593;48.398;10.698;2022-07-29T02:53:04;96008.81;;;27.88
20867;BMP280;10593;48.398;10.698;2022-07-29T02:55:37;96000.22;;;27.86
20867;BMP280;10593;48.398;10.698;2022-07-29T02:58:34;96021.59;;;27.83
20867;BMP280;10593;48.398;10.698;2022-07-29T03:01:11;96010.22;;;27.82
20867;BMP280;10593;48.398;10.698;2022-07-29T03:03:42;96011.31;;;27.80
20867;BMP280;10593;48.398;10.698;2022-07-29T03:06:09;96014.09;;;27.78
20867;BMP280;10593;48.398;10.698;2022-07-29T03:08:36;96015.19;;;27.76
20867;BMP280;10593;48.398;10.698;2022-07-29T03:11:03;96013.53;;;27.75
20867;BMP280;10593;48.398;10.698;2022-07-29T03:13:30;96017.97;;;27.74
20867;BMP280;10593;48.398;10.698;2022-07-29T03:15:57;96016.31;;;27.73
20867;BMP280;10593;48.398;10.698;2022-07-29T03:18:25;96011.13;;;27.72
20867;BMP280;10593;48.398;10.698;2022-07-29T03:20:51;96010.44;;;27.70
20867;BMP280;10593;48.398;10.698;2022-07-29T03:23:22;96007.94;;;27.68
20867;BMP280;10593;48.398;10.698;2022-07-29T03:25:50;96010.69;;;27.67
20867;BMP280;10593;48.398;10.698;2022-07-29T03:28:16;96009.03;;;27.66
20867;BMP280;10593;48.398;10.698;2022-07-29T03:30:42;96007.34;;;27.65
20867;BMP280;10593;48.398;10.698;2022-07-29T03:33:07;96004.03;;;27.63
20867;BMP280;10593;48.398;10.698;2022-07-29T03:35:33;96005.00;;;27.62
20867;BMP280;10593;48.398;10.698;2022-07-29T03:37:59;96005.13;;;27.60
20867;BMP280;10593;48.398;10.698;2022-07-29T03:40:45;96010.69;;;27.57
20867;BMP280;10593;48.398;10.698;2022-07-29T03:43:15;96017.06;;;27.55
20867;BMP280;10593;48.398;10.698;2022-07-29T03:45:47;96011.09;;;27.53
20867;BMP280;10593;48.398;10.698;2022-07-29T03:48:19;96014.84;;;27.50
20867;BMP280;10593;48.398;10.698;2022-07-29T03:50:46;96024.84;;;27.47
20867;BMP280;10593;48.398;10.698;2022-07-29T03:53:13;96017.19;;;27.44
20867;BMP280;10593;48.398;10.698;2022-07-29T03:55:46;96021.75;;;27.42
20867;BMP280;10593;48.398;10.698;2022-07-29T03:58:15;96027.44;;;27.37
20867;BMP280;10593;48.398;10.698;2022-07-29T04:00:43;96038.13;;;27.36
20867;BMP280;10593;48.398;10.698;2022-07-29T04:03:10;96034.09;;;27.32
20867;BMP280;10593;48.398;10.698;2022-07-29T04:05:36;96034.22;;;27.30
20867;BMP280;10593;48.398;10.698;2022-07-29T04:08:01;96037.94;;;27.28
20867;BMP280;10593;48.398;10.698;2022-07-29T04:10:27;96039.88;;;27.26
20867;BMP280;10593;48.398;10.698;2022-07-29T04:12:53;96039.19;;;27.24
20867;BMP280;10593;48.398;10.698;2022-07-29T04:15:19;96039.34;;;27.22
20867;BMP280;10593;48.398;10.698;2022-07-29T04:17:44;96038.63;;;27.20
20867;BMP280;10593;48.398;10.698;2022-07-29T04:20:11;96036.13;;;27.19
20867;BMP280;10593;48.398;10.698;2022-07-29T04:22:40;96040.69;;;27.17
20867;BMP280;10593;48.398;10.698;2022-07-29T04:25:06;96036.41;;;27.16
20867;BMP280;10593;48.398;10.698;2022-07-29T04:27:32;96047.06;;;27.14
20867;BMP280;10593;48.398;10.698;2022-07-29T04:29:58;96051.66;;;27.12
20867;BMP280;10593;48.398;10.698;2022-07-29T04:32:24;96059.81;;;27.09
20867;BMP280;10593;48.398;10.698;2022-07-29T04:34:50;96066.03;;;27.08
20867;BMP280;10593;48.398;10.698;2022-07-29T04:37:16;96066.28;;;27.05
20867;BMP280;10593;48.398;10.698;2022-07-29T04:39:42;96073.22;;;27.06
20867;BMP280;10593;48.398;10.698;2022-07-29T04:42:07;96070.75;;;27.05
20867;BMP280;10593;48.398;10.698;2022-07-29T04:44:33;96082.13;;;27.05
20867;BMP280;10593;48.398;10.698;2022-07-29T04:46:59;96077.97;;;27.03
20867;BMP280;10593;48.398;10.698;2022-07-29T04:49:24;96077.97;;;27.03
20867;BMP280;10593;48.398;10.698;2022-07-29T04:51:50;96085.88;;;27.03
20867;BMP280;10593;48.398;10.698;2022-07-29T04:54:16;96085.03;;;27.02
20867;BMP280;10593;48.398;10.698;2022-07-29T04:56:42;96095.47;;;27.04
20867;BMP280;10593;48.398;10.698;2022-07-29T04:59:07;96099.88;;;27.03
20867;BMP280;10593;48.398;10.698;2022-07-29T05:01:33;96085.88;;;27.03
20867;BMP280;10593;48.398;10.698;2022-07-29T05:03:59;96088.50;;;27.03
20867;BMP280;10593;48.398;10.698;2022-07-29T05:06:24;96092.09;;;27.02
20867;BMP280;10593;48.398;10.698;2022-07-29T05:08:50;96089.72;;;26.99
20867;BMP280;10593;48.398;10.698;2022-07-29T05:11:15;96095.13;;;26.97
20867;BMP280;10593;48.398;10.698;2022-07-29T05:13:41;96082.91;;;26.96
20867;BMP280;10593;48.398;10.698;2022-07-29T05:16:08;96091.81;;;26.95
20867;BMP280;10593;48.398;10.698;2022-07-29T05:18:34;96092.75;;;26.94
20867;BMP280;10593;48.398;10.698;2022-07-29T05:20:59;96095.53;;;26.93
20867;BMP280;10593;48.398;10.698;2022-07-29T05:23:25;96097.06;;;26.95
20867;BMP280;10593;48.398;10.698;2022-07-29T05:25:51;96091.66;;;26.97
20867;BMP280;10593;48.398;10.698;2022-07-29T05:28:16;96090.56;;;26.99
20867;BMP280;10593;48.398;10.698;2022-07-29T05:30:42;96105.69;;;26.97
20867;BMP280;10593;48.398;10.698;2022-07-29T05:33:10;96100.28;;;26.99
20867;BMP280;10593;48.398;10.698;2022-07-29T05:35:36;96099.31;;;27.00
20867;BMP280;10593;48.398;10.698;2022-07-29T05:38:03;96099.31;;;27.00
20867;BMP280;10593;48.398;10.698;2022-07-29T05:40:29;96105.44;;;27.00
20867;BMP280;10593;48.398;10.698;2022-07-29T05:42:55;96102.63;;;27.02
20867;BMP280;10593;48.398;10.698;2022-07-29T05:45:21;96106.97;;;27.03
20867;BMP280;10593;48.398;10.698;2022-07-29T05:47:47;96090.19;;;27.04
20867;BMP280;10593;48.398;10.698;2022-07-29T05:50:12;96094.59;;;27.03
20867;BMP280;10593;48.398;10.698;2022-07-29T05:52:38;96089.44;;;27.02
20867;BMP280;10593;48.398;10.698;2022-07-29T05:55:05;96090.41;;;27.01
20867;BMP280;10593;48.398;10.698;2022-07-29T05:57:31;96087.06;;;26.99
20867;BMP280;10593;48.398;10.698;2022-07-29T05:59:57;96092.50;;;26.97
20867;BMP280;10593;48.398;10.698;2022-07-29T06:02:23;96092.50;;;26.97
20867;BMP280;10593;48.398;10.698;2022-07-29T06:04:49;96103.06;;;26.97
20867;BMP280;10593;48.398;10.698;2022-07-29T06:07:15;96097.91;;;26.96
20867;BMP280;10593;48.398;10.698;2022-07-29T06:09:41;96106.06;;;26.93
20867;BMP280;10593;48.398;10.698;2022-07-29T06:12:08;96108.72;;;26.93
20867;BMP280;10593;48.398;10.698;2022-07-29T06:14:34;96111.19;;;26.94
20867;BMP280;10593;48.398;10.698;2022-07-29T06:17:01;96114.56;;;26.96
20867;BMP280;10593;48.398;10.698;2022-07-29T06:19:26;96115.13;;;27.00
20867;BMP280;10593;48.398;10.698;2022-07-29T06:21:52;96116.56;;;27.04
20867;BMP280;10593;48.398;10.698;2022-07-29T06:24:18;96115.44;;;27.06
20867;BMP280;10593;48.398;10.698;2022-07-29T06:26:44;96119.41;;;27.12
20867;BMP280;10593;48.398;10.698;2022-07-29T06:29:10;96108.47;;;27.16
20867;BMP280;10593;48.398;10.698;2022-07-29T06:31:36;96113.34;;;27.21
20867;BMP280;10593;48.398;10.698;2022-07-29T06:34:03;96110.34;;;27.25
20867;BMP280;10593;48.398;10.698;2022-07-29T06:36:29;96121.44;;;27.29
20867;BMP280;10593;48.398;10.698;2022-07-29T06:38:54;96122.03;;;27.32
20867;BMP280;10593;48.398;10.698;2022-07-29T06:41:20;96125.38;;;27.34
20867;BMP280;10593;48.398;10.698;2022-07-29T06:43:46;96125.25;;;27.36
20867;BMP280;10593;48.398;10.698;2022-07-29T06:46:15;96123.03;;;27.41
20867;BMP280;10593;48.398;10.698;2022-07-29T06:48:43;96122.63;;;27.45
20867;BMP280;10593;48.398;10.698;2022-07-29T06:51:12;96125.75;;;27.50
20867;BMP280;10593;48.398;10.698;2022-07-29T06:53:39;96120.78;;;27.57
20867;BMP280;10593;48.398;10.698;2022-07-29T06:56:06;96129.13;;;27.62
20867;BMP280;10593;48.398;10.698;2022-07-29T06:58:35;96129.31;;;27.70
20867;BMP280;10593;48.398;10.698;2022-07-29T07:01:03;96125.44;;;27.74
20867;BMP280;10593;48.398;10.698;2022-07-29T07:03:29;96124.19;;;27.78
20867;BMP280;10593;48.398;10.698;2022-07-29T07:05:55;96122.13;;;27.81
20867;BMP280;10593;48.398;10.698;2022-07-29T07:08:21;96122.72;;;27.85
20867;BMP280;10593;48.398;10.698;2022-07-29T07:10:48;96132.72;;;27.91
20867;BMP280;10593;48.398;10.698;2022-07-29T07:13:14;96129.69;;;27.95
20867;BMP280;10593;48.398;10.698;2022-07-29T07:15:40;96133.72;;;27.99
20867;BMP280;10593;48.398;10.698;2022-07-29T07:18:07;96129.69;;;28.05
20867;BMP280;10593;48.398;10.698;2022-07-29T07:20:34;96129.31;;;28.09
20867;BMP280;10593;48.398;10.698;2022-07-29T07:23:00;96134.47;;;28.11
20867;BMP280;10593;48.398;10.698;2022-07-29T07:25:26;96145.72;;;28.13
20867;BMP280;10593;48.398;10.698;2022-07-29T07:27:52;96144.19;;;28.10
20867;BMP280;10593;48.398;10.698;2022-07-29T07:30:17;96140.72;;;28.10
20867;BMP280;10593;48.398;10.698;2022-07-29T07:32:43;96130.16;;;28.10
20867;BMP280;10593;48.398;10.698;2022-07-29T07:35:10;96127.50;;;28.10
20867;BMP280;10593;48.398;10.698;2022-07-29T07:37:37;96122.91;;;28.12
20867;BMP280;10593;48.398;10.698;2022-07-29T07:40:04;96129.72;;;28.14
20867;BMP280;10593;48.398;10.698;2022-07-29T07:42:30;96140.03;;;28.17
20867;BMP280;10593;48.398;10.698;2022-07-29T07:44:56;96134.75;;;28.17
20867;BMP280;10593;48.398;10.698;2022-07-29T07:47:22;96134.59;;;28.18
20867;BMP280;10593;48.398;10.698;2022-07-29T07:49:50;96135.56;;;28.17
20867;BMP280;10593;48.398;10.698;2022-07-29T07:52:18;96134.59;;;28.18
20867;BMP280;10593;48.398;10.698;2022-07-29T07:54:44;96135.28;;;28.20
20867;BMP280;10593;48.398;10.698;2022-07-29T07:57:11;96136.00;;;28.22
20867;BMP280;10593;48.398;10.698;2022-07-29T07:59:37;96138.50;;;28.24
20867;BMP280;10593;48.398;10.698;2022-07-29T08:02:03;96133.09;;;28.25
20867;BMP280;10593;48.398;10.698;2022-07-29T08:04:29;96127.66;;;28.27
20867;BMP280;10593;48.398;10.698;2022-07-29T08:06:57;96132.81;;;28.28
20867;BMP280;10593;48.398;10.698;2022-07-29T08:09:25;96139.22;;;28.26
20867;BMP280;10593;48.398;10.698;2022-07-29T08:11:51;96137.69;;;28.23
20867;BMP280;10593;48.398;10.698;2022-07-29T08:14:17;96135.16;;;28.22
20867;BMP280;10593;48.398;10.698;2022-07-29T08:16:42;96131.56;;;28.23
20867;BMP280;10593;48.398;10.698;2022-07-29T08:19:08;96137.69;;;28.23
20867;BMP280;10593;48.398;10.698;2022-07-29T08:21:34;96136.72;;;28.24
20867;BMP280;10593;48.398;10.698;2022-07-29T08:24:01;96144.38;;;28.27
20867;BMP280;10593;48.398;10.698;2022-07-29T08:26:46;96139.34;;;28.24
20867;BMP280;10593;48.398;10.698;2022-07-29T08:29:12;96137.69;;;28.23
20867;BMP280;10593;48.398;10.698;2022-07-29T08:31:39;96130.69;;;28.22
20867;BMP280;10593;48.398;10.698;2022-07-29T08:34:05;96133.50;;;28.21
20867;BMP280;10593;48.398;10.698;2022-07-29T08:36:32;96144.91;;;28.21
20867;BMP280;10593;48.398;10.698;2022-07-29T08:38:59;96147.69;;;28.20
20867;BMP280;10593;48.398;10.698;2022-07-29T08:41:26;96145.75;;;28.22
20867;BMP280;10593;48.398;10.698;2022-07-29T08:43:52;96144.78;;;28.23
20867;BMP280;10593;48.398;10.698;2022-07-29T08:46:20;96144.66;;;28.24
20867;BMP280;10593;48.398;10.698;2022-07-29T08:48:47;96143.66;;;28.25
20867;BMP280;10593;48.398;10.698;2022-07-29T08:51:24;96140.19;;;28.25
20867;BMP280;10593;48.398;10.698;2022-07-29T08:53:50;96141.84;;;28.26
20867;BMP280;10593;48.398;10.698;2022-07-29T08:56:18;96144.38;;;28.27
20867;BMP280;10593;48.398;10.698;2022-07-29T08:58:46;96149.38;;;28.30
20867;BMP280;10593;48.398;10.698;2022-07-29T09:01:16;96147.34;;;28.34
20867;BMP280;10593;48.398;10.698;2022-07-29T09:03:44;96141.88;;;28.35
20867;BMP280;10593;48.398;10.698;2022-07-29T09:06:14;96150.28;;;28.40
20867;BMP280;10593;48.398;10.698;2022-07-29T09:08:41;96149.13;;;28.43
20867;BMP280;10593;48.398;10.698;2022-07-29T09:11:07;96150.56;;;28.47
20867;BMP280;10593;48.398;10.698;2022-07-29T09:13:33;96148.47;;;28.50
20867;BMP280;10593;48.398;10.698;2022-07-29T09:16:00;96145.38;;;28.55
20867;BMP280;10593;48.398;10.698;2022-07-29T09:18:43;96135.38;;;28.58
20867;BMP280;10593;48.398;10.698;2022-07-29T09:21:13;96141.94;;;28.64
20867;BMP280;10593;48.398;10.698;2022-07-29T09:24:10;96134.41;;;28.69
20867;BMP280;10593;48.398;10.698;2022-07-29T09:26:43;96144.56;;;28.73
20867;BMP280;10593;48.398;10.698;2022-07-29T09:29:14;96154.59;;;28.79
20867;BMP280;10593;48.398;10.698;2022-07-29T09:31:46;96143.63;;;28.84
20867;BMP280;10593;48.398;10.698;2022-07-29T09:34:17;96139.44;;;28.91
20867;BMP280;10593;48.398;10.698;2022-07-29T09:36:48;96138.88;;;28.97
20867;BMP280;10593;48.398;10.698;2022-07-29T09:39:27;96127.84;;;29.01
20867;BMP280;10593;48.398;10.698;2022-07-29T09:41:56;96136.06;;;29.08
20867;BMP280;10593;48.398;10.698;2022-07-29T09:44:23;96136.34;;;29.14
20867;BMP280;10593;48.398;10.698;2022-07-29T09:47:00;96140.09;;;29.21
20867;BMP280;10593;48.398;10.698;2022-07-29T09:49:33;96135.19;;;29.26
20867;BMP280;10593;48.398;10.698;2022-07-29T09:52:08;96125.03;;;29.31
20867;BMP280;10593;48.398;10.698;2022-07-29T09:54:35;96120.13;;;29.36
20867;BMP280;10593;48.398;10.698;2022-07-29T09:57:09;96120.53;;;29.41
20867;BMP280;10593;48.398;10.698;2022-07-29T10:00:16;96122.66;;;29.47
20867;BMP280;10593;48.398;10.698;2022-07-29T10:02:44;96125.69;;;29.52
20867;BMP280;10593;48.398;10.698;2022-07-29T10:05:22;96119.81;;;29.58
20867;BMP280;10593;48.398;10.698;2022-07-29T10:07:55;96127.31;;;29.63
20867;BMP280;10593;48.398;10.698;2022-07-29T10:10:33;96122.25;;;29.69
20867;BMP280;10593;48.398;10.698;2022-07-29T10:13:04;96128.78;;;29.75
20867;BMP280;10593;48.398;10.698;2022-07-29T10:15:33;96125.72;;;29.79
20867;BMP280;10593;48.398;10.698;2022-07-29T10:17:59;96125.41;;;29.82
20867;BMP280;10593;48.398;10.698;2022-07-29T10:20:27;96124.16;;;29.86
20867;BMP280;10593;48.398;10.698;2022-07-29T10:22:54;96126.50;;;29.89
20867;BMP280;10593;48.398;10.698;2022-07-29T10:25:21;96124.41;;;29.93
20867;BMP280;10593;48.398;10.698;2022-07-29T10:27:49;96130.22;;;29.96
20867;BMP280;10593;48.398;10.698;2022-07-29T10:30:18;96125.34;;;30.01
20867;BMP280;10593;48.398;10.698;2022-07-29T10:33:38;96115.41;;;30.03
20867;BMP280;10593;48.398;10.698;2022-07-29T10:39:35;96104.09;;;30.11
20867;BMP280;10593;48.398;10.698;2022-07-29T10:42:22;96100.00;;;30.16
20867;BMP280;10593;48.398;10.698;2022-07-29T10:44:50;96097.91;;;30.20
20867;BMP280;10593;48.398;10.698;2022-07-29T10:47:27;96095.63;;;30.25
20867;BMP280;10593;48.398;10.698;2022-07-29T10:49:57;96098.81;;;30.28
20867;BMP280;10593;48.398;10.698;2022-07-29T10:52:23;96089.56;;;30.32
20867;BMP280;10593;48.398;10.698;2022-07-29T10:54:53;96091.91;;;30.35
20867;BMP280;10593;48.398;10.698;2022-07-29T10:57:28;96083.66;;;30.38
20867;BMP280;10593;48.398;10.698;2022-07-29T11:05:18;96081.09;;;30.46
20867;BMP280;10593;48.398;10.698;2022-07-29T11:08:19;96081.44;;;30.51
20867;BMP280;10593;48.398;10.698;2022-07-29T11:10:50;96075.88;;;30.54
20867;BMP280;10593;48.398;10.698;2022-07-29T11:16:07;96068.31;;;30.59
20867;BMP280;10593;48.398;10.698;2022-07-29T11:18:32;96074.28;;;30.61
20867;BMP280;10593;48.398;10.698;2022-07-29T11:20:59;96073.97;;;30.64
20867;BMP280;10593;48.398;10.698;2022-07-29T11:23:30;96073.84;;;30.65
20867;BMP280;10593;48.398;10.698;2022-07-29T11:31:33;96077.34;;;30.66
20867;BMP280;10593;48.398;10.698;2022-07-29T11:39:37;96075.94;;;30.62
20867;BMP280;10593;48.398;10.698;2022-07-29T11:47:59;96079.59;;;30.61
20867;BMP280;10593;48.398;10.698;2022-07-29T11:50:44;96084.75;;;30.63
20867;BMP280;10593;48.398;10.698;2022-07-29T11:53:14;96081.94;;;30.64
20867;BMP280;10593;48.398;10.698;2022-07-29T11:55:40;96080.13;;;30.64
20867;BMP280;10593;48.398;10.698;2022-07-29T11:58:07;96075.50;;;30.66
20867;BMP280;10593;48.398;10.698;2022-07-29T12:00:37;96075.34;;;30.68
20867;BMP280;10593;48.398;10.698;2022-07-29T12:03:07;96075.34;;;30.68
20867;BMP280;10593;48.398;10.698;2022-07-29T12:08:11;96068.06;;;30.70
20867;BMP280;10593;48.398;10.698;2022-07-29T12:10:38;96066.41;;;30.69
20867;BMP280;10593;48.398;10.698;2022-07-29T12:13:04;96063.75;;;30.69
20867;BMP280;10593;48.398;10.698;2022-07-29T12:15:30;96068.22;;;30.68
20867;BMP280;10593;48.398;10.698;2022-07-29T12:17:56;96058.59;;;30.67
20867;BMP280;10593;48.398;10.698;2022-07-29T12:20:28;96058.44;;;30.69
20867;BMP280;10593;48.398;10.698;2022-07-29T12:22:55;96063.75;;;30.69
20867;BMP280;10593;48.398;10.698;2022-07-29T12:25:23;96053.97;;;30.69
20867;BMP280;10593;48.398;10.698;2022-07-29T12:28:09;96052.16;;;30.70
20867;BMP280;10593;48.398;10.698;2022-07-29T12:30:54;96054.13;;;30.68
20867;BMP280;10593;48.398;10.698;2022-07-29T12:33:24;96051.28;;;30.69
20867;BMP280;10593;48.398;10.698;2022-07-29T12:35:53;96049.50;;;30.70
20867;BMP280;10593;48.398;10.698;2022-07-29T12:38:20;96053.13;;;30.69
20867;BMP280;10593;48.398;10.698;2022-07-29T12:40:47;96060.13;;;30.70
20867;BMP280;10593;48.398;10.698;2022-07-29T12:43:17;96052.16;;;30.70
20867;BMP280;10593;48.398;10.698;2022-07-29T12:45:53;96050.31;;;30.70
20867;BMP280;10593;48.398;10.698;2022-07-29T12:48:37;96053.81;;;30.71
20867;BMP280;10593;48.398;10.698;2022-07-29T12:51:05;96051.00;;;30.72
20867;BMP280;10593;48.398;10.698;2022-07-29T12:53:32;96051.84;;;30.73
20867;BMP280;10593;48.398;10.698;2022-07-29T12:55:59;96051.84;;;30.73
20867;BMP280;10593;48.398;10.698;2022-07-29T13:01:14;96052.97;;;30.70
20867;BMP280;10593;48.398;10.698;2022-07-29T13:03:57;96049.63;;;30.68
20867;BMP280;10593;48.398;10.698;2022-07-29T13:06:41;96056.09;;;30.66
20867;BMP280;10593;48.398;10.698;2022-07-29T13:09:18;96060.69;;;30.64
20867;BMP280;10593;48.398;10.698;2022-07-29T13:11:50;96061.56;;;30.64
20867;BMP280;10593;48.398;10.698;2022-07-29T13:14:40;96060.88;;;30.63
20867;BMP280;10593;48.398;10.698;2022-07-29T13:17:16;96062.53;;;30.63
20867;BMP280;10593;48.398;10.698;2022-07-29T13:19:47;96068.66;;;30.64
20867;BMP280;10593;48.398;10.698;2022-07-29T13:22:16;96063.34;;;30.64
20867;BMP280;10593;48.398;10.698;2022-07-29T13:25:01;96067.00;;;30.63
20867;BMP280;10593;48.398;10.698;2022-07-29T13:27:30;96066.31;;;30.61
20867;BMP280;10593;48.398;10.698;2022-07-29T13:30:03;96071.63;;;30.61
20867;BMP280;10593;48.398;10.698;2022-07-29T13:32:30;96058.53;;;30.60
20867;BMP280;10593;48.398;10.698;2022-07-29T13:34:59;96061.19;;;30.60
20867;BMP280;10593;48.398;10.698;2022-07-29T13:37:26;96059.34;;;30.60
20867;BMP280;10593;48.398;10.698;2022-07-29T13:39:57;96054.72;;;30.62
20867;BMP280;10593;48.398;10.698;2022-07-29T13:42:24;96055.56;;;30.63
20867;BMP280;10593;48.398;10.698;2022-07-29T13:44:50;96051.94;;;30.63
20867;BMP280;10593;48.398;10.698;2022-07-29T13:47:20;96046.47;;;30.65
20867;BMP280;10593;48.398;10.698;2022-07-29T13:49:47;96044.66;;;30.65
20867;BMP280;10593;48.398;10.698;2022-07-29T13:52:13;96052.59;;;30.65
20867;BMP280;10593;48.398;10.698;2022-07-29T13:54:38;96046.31;;;30.66
20867;BMP280;10593;48.398;10.698;2022-07-29T13:57:04;96047.16;;;30.67
20867;BMP280;10593;48.398;10.698;2022-07-29T13:59:30;96045.19;;;30.69
20867;BMP280;10593;48.398;10.698;2022-07-29T14:01:56;96037.88;;;30.71
20867;BMP280;10593;48.398;10.698;2022-07-29T14:04:22;96026.13;;;30.73
20867;BMP280;10593;48.398;10.698;2022-07-29T14:06:49;96024.16;;;30.75
20867;BMP280;10593;48.398;10.698;2022-07-29T14:09:15;96019.53;;;30.77
20867;BMP280;10593;48.398;10.698;2022-07-29T14:11:41;96017.41;;;30.81
20867;BMP280;10593;48.398;10.698;2022-07-29T14:14:06;96023.38;;;30.83
20867;BMP280;10593;48.398;10.698;2022-07-29T14:16:33;96019.59;;;30.85
20867;BMP280;10593;48.398;10.698;2022-07-29T14:18:59;96016.44;;;30.90
20867;BMP280;10593;48.398;10.698;2022-07-29T14:21:25;96018.81;;;30.93
20867;BMP280;10593;48.398;10.698;2022-07-29T14:23:50;96010.53;;;30.96
20867;BMP280;10593;48.398;10.698;2022-07-29T14:26:17;96011.06;;;30.99
20867;BMP280;10593;48.398;10.698;2022-07-29T14:28:43;96022.19;;;31.03
20867;BMP280;10593;48.398;10.698;2022-07-29T14:31:09;96018.53;;;31.04
20867;BMP280;10593;48.398;10.698;2022-07-29T14:33:35;96017.25;;;31.08
20867;BMP280;10593;48.398;10.698;2022-07-29T14:36:01;96024.88;;;31.11
20867;BMP280;10593;48.398;10.698;2022-07-29T14:38:27;96021.25;;;31.12
20867;BMP280;10593;48.398;10.698;2022-07-29T14:40:52;96025.44;;;31.14
20867;BMP280;10593;48.398;10.698;2022-07-29T14:43:18;96029.59;;;31.17
20867;BMP280;10593;48.398;10.698;2022-07-29T14:45:44;96040.22;;;31.17